Timeline UpdatesTrip UpdatesNews PostsPvt PostsTravel TipsAdmin PostsConv PostsFollowed PostsChat RequestsBlog PostsPNR Posts

Disclaimer
Search
 
 
Wed Apr 23, 2014 20:54:02 ISTHomeTrainsΣChainsAtlasPNRForumGalleryNewsFAQTripsMembersLoginFeedback
No Recent News for this Train
Other Trains in the News **new
Latest...
.
Tue Jan 22, 2013 (09:18AM)
⇐ Return Journey: Train# 51422

51421/Pune-Nizamabad Passenger (UnReserved)

Jan 16 2014 (7:29PM)
Change Departure Station:
Change Arrival Station:
Post a Train Travel TipPost a Train Travel Tip **new
Post a Comment/Question/Picture/VideoPost a Comment/Question/Picture/Video
Pantry/Catering
✕ NO Pantry Car
✓ Catering Avbl
Loco/Rake Reversals
DD/Daund Junction (7);
RSA - Rake Sharing
51451-Pune-Daund Shuttle,51433-Nizamabad Pandharpur Passenger,51434-Pandharpur Nizamabad Passenger,51422-Nizamabad Pune Passenger
Rake/Coach Composition
SLR, UR, UR, UR, UR, UR, UR, UR, SLR,
Loco
PUNE WDM/G-3A / WDM-3D
News    PNR    Forum    Time-Table    Availability    Fare Chart    Map    Arr/Dep History    Trips    Gallery    ΣChains    X/O    Timeline    
Travel Time: 19h 28m    80 halts    Distance: 757 km    Avg Speed: 38 km/hr
Type: Passenger
Zone: CR/Central
Departs @ 14:52 (Avg 15m late)
Platform# 2
SMTWTFS
Loni/LONI 
Arrives @ 10:20 +1 night (Avg 4h 17m late)
Platform# ???
SMTWTFS
Nizamabad/NZB 

80 halts. 90 intermediate Stations between Loni and Nizamabad

Show ALL intermediate Stations  Show Old Time-Table

#CodeStation NameX/OArrivesAvgDepartsAvgHaltPFDay#KmSpeedElevZoneAddress
1PUNEPune Junction (6)  -14:25+751-16.466556mCRPune 411001, Maharashtra
2GPRWGhorpuri West (2)X  14:27-14:28-1m--1-14.227552mCRPune 411001, Maharashtra
3HDPHadapsar (3)  14:36+1414:37+151m11-10.549554mCRPune 411028, Maharashtra
4MJBKManjari Budruk (2)  14:43+1514:44+151m21-5.648550mCRPune 412307, Maharashtra
5LONI»Loni (2)»  14:51+1514:52+151m210.062541mCRPune 412201, Maharashtra
6URIUruli (2)X  15:04+1415:05+141m2112.458553mCRDist. Pune 412202, Maharashtra
7YTYevat (2)  15:18+1415:19+141m2125.075550mCRDist. Pune 412214, Maharashtra
8KTTKhutbavX  15:24+1515:25+151m2131.364558mCRShirur-Daund Rd Daund, Maharashtra
9KDGKedgaon (2)X  15:31+1515:32+151m2137.751544mCRDist. Pune 412203, Maharashtra
10KDTNKadethan  15:38+1215:39+121m2142.836532mCRDaund, Maharashtra
11PAAPatas (3)  15:47+1215:48+121m2147.632532mCRDist. Pune 412219, Maharashtra
12DDDaund Junction (7)X16:10+1116:25+2715m3159.255521mCRNew Daund Dist. Pune 413801, Maharashtra
13KSTHKashti (2)X  16:39+3416:40+351m1172.126540mCRDaund, Maharashtra
14SGNDShrigonda Road (2)O  16:59+2817:00+311m1180.345547mCRAhmadnagar, Maharashtra
15BWDBelwandi (2)X  17:19+2617:20+311m1194.568592mCRAhmadnagar, Maharashtra
16VPRVisapur (2)  17:32+3217:33+341m11108.241186mCRAhmadnagar, Maharashtra
17RNJDRanjangaon Road (1)  17:42+3517:43+391m11114.442656mCRDist. Pune, Maharashtra
18SRLSarola (2)  17:58+3617:59+391m11124.8430mCRAhmadnagar, Maharashtra
19AKRAkolner (1)  18:07+3918:08+461m11130.640689mCRAhmadnagar, Maharashtra
20ANGAhmadnagar (2)X  18:27+4018:30+433m11143.449650mCRAhmednagar 414001, Maharashtra
21NNBNimblak (1)X  18:39+1:2618:40+1:251m11150.757656mCRAhmednagar, Maharashtra
22VLVilad (1)  18:49+5018:50+571m11159.249598mCRAhmadnagar, Maharashtra
23VBRVambori (1)  19:04+5419:05+1:001m11170.866547mCRAhmadnagar, Maharashtra
24RRIRahuri (2)  19:17+5919:18+1:041m--1184.062519mCRAhmadnagar, Maharashtra
25TKMYTaklimiya (1)  19:23+1:0619:24+1:061m11189.268511mCRVambori, Maharashtra
26PDGNPadhegaon (1)  19:32+1:0619:33+1:151m11198.251512mCRBelapur, Maharashtra
27NPWNipani Vadgaon (2)  19:40+1:0719:41+1:071m--1204.221531mCRChitali, Maharashtra
28BAPBelapur (2)O  19:59+1:0720:00+1:111m11210.446541mCRShrirampur, Maharashtra
29CITChitali (1)20:15+1:0720:16+1:081m11221.959531mCRAhmadnagar, Maharashtra
30PBPuntamba Junction (2)O  20:25+1:0820:26+1:131m11230.759501mCRPuntamba, Maharashtra
31KNGNKanhegaon (2)  20:35+1:1320:36+1:261m--1239.751498mCRAhmadnagar, Maharashtra
32SNVRSanvatsarX  20:45+1:0620:46+1:061m--1247.317521mCRNagpur-Aurngabad-Mumbai Hwy, Maharashtra
33KPGKopargaon (2)X21:14+1:0421:15+1:101m11255.058508mCRKopargaon Tel: 02423-222268, Maharashtra
34YLYeola (2)X  21:29+1:1021:30+1:291m--1268.723553mCRYeola, Maharashtra
35MMRManmad Junction (6)  22:45+1:3522:50+2:095m51297.352580mCRManmad 423104, Maharashtra
36ANKAnkai (3)  23:14+023:15+01m11312.266620mSCRDist. Nashik, Maharashtra
37NSLNagarsol (2)  23:24+2:4523:25+2:481m--1322.137589mSCRDist. Nashik, Maharashtra
38TRTarur  23:35+2:5323:36+2:571m--1328.3131586mSCRTaru, Maharashtra
39RGORotegaon  23:46+3:0023:47+3:041m--1350.182547mSCRAurangabad, Maharashtra
40PSDParsoda  23:56+3:1023:57+3:131m--1362.470530mSCRRotegaon, Maharashtra
41KAJGKaranjgaonX  00:01+3:1500:02+3:171m--2367.151523mSCRLasur, Maharashtra
42LSRLasur (2)  00:14+3:1700:15+3:211m--2377.279536mSCRAurangabad, Maharashtra
43POZPotul (1)  00:24+3:2300:25+3:251m12389.062554mSCRLasur, Maharashtra
44DLBDaulatabad (1)  00:34+3:2500:35+3:311m12398.350575mSCRDaulatabad, Maharashtra
45AWBAurangabad (5)X  00:50+3:2000:55+3:325m--2410.843561mSCRAurangabad 431001, Maharashtra
46MKDDMukundwadi Halt (1)X  01:09+3:4301:10+3:431m12420.8-580mSCRAurangabad, Maharashtra
47CTHChikalthan  01:14+3:4301:15+3:461m--2435.117582mSCRAurangabad, Maharashtra
48KMVKarmadX  01:29+3:4601:30+3:541m--2439.066567mSCRAurangabad, Maharashtra
49BDUBadnapur  01:44+3:5701:45+4:041m--2454.588523mSCRJalna, Maharashtra
50JJalna (3)  01:58+3:5602:00+3:582m--2473.465502mSCRJalna, Maharashtra
51SVDSarwariX  02:09+4:1402:10+4:161m--2483.266493mSCRRanjani, Maharashtra
52KODIKodi  02:19+4:1802:20+4:211m--2493.175473mSCRRanjani, Maharashtra
53RNERanjani  02:29+4:2402:30+4:291m--2504.442469mSCRJalna, Maharashtra
54PDGParadgaonX  02:39+4:2602:40+4:261m--2510.648454mSCRUsmanpur, Maharashtra
55PTUPartur (2)X  02:49+4:2602:50+4:301m--2517.863465mSCRJalna, Maharashtra
56UPRUsmanpur  02:59+4:3003:00+4:321m--2527.353444mSCRUsmanpur, Maharashtra
57SCOSatuna  03:09+4:3303:10+4:351m--2535.268440mSCRSatona, Maharashtra
58SELUSelu (2)  03:19+4:3503:20+4:391m--2545.464436mSCRParbhani, Maharashtra
59DGPPDhengli PimpalgaonX  03:29+4:4303:30+4:441m--2555.036407mSCRSatuna, Maharashtra
60MVOManwath Road (2)X  03:39+4:4403:40+4:471m--2560.462421mSCRParbhani, Maharashtra
61DAVDevalgaon Avchar  03:49+4:4803:50+4:491m--2569.740425mSCRParbhani, Maharashtra
62PGPergaonX  03:59+4:4904:00+4:541m--2575.726441mSCRParbhani, Maharashtra
63PBNParbhani Junction (3)  04:28+4:2504:30+4:352m12587.873414mSCRParbhani 431401, Maharashtra
64PIZPingliX  04:39+4:5404:40+4:571m--2598.836399mSCRParbhani, Maharashtra
65MQLMirkhalX  04:49+4:5604:50+5:081m--2604.221405mSCRPurna, Maharashtra
66PAUPurna Junction (4)X  05:25+4:4805:30+4:555m--2616.342384mSCRPurna, Maharashtra
67CRUChudawa (1)X  05:44+4:5705:45+5:021m12626.164392mSCRHingoli, Maharashtra
68LBGLimbgaon  05:54+5:0405:55+5:121m--2635.870390mSCRHuzur Sahib Nanded, Maharashtra
69WNGWanegaonX  05:59+4:5506:00+4:551m--2640.411371mSCRChudawa, Maharashtra
70NEDHazur Sahib Nanded (4)X  06:35+4:4806:40+4:505m22646.942366mSCRNanded ph.no 09730471954, Maharashtra
71MTDIMaltekdi  06:44+5:4306:45+5:421m--2649.648362mSCRNanded, Maharashtra
72PARDPathrad  06:54+4:5806:55+4:581m--2656.822363mSCRHuzur Sahib Nanded, Maharashtra
73MGCMugatX  07:04+4:5807:05+4:581m--2660.110360mSCRNanded, Maharashtra
74MUEMudkhed Junction (4)X  07:58+4:2208:00+4:232m--2669.254378mSCRMudkhed, Maharashtra
75SVNSivungaon  08:08+4:2708:09+4:301m--2676.453395mSCRNanded, Maharashtra
76SLGHShelgaon Halt  08:14+4:2808:15+4:281m--2680.947378mSCRMudkhed, Maharashtra
77UMRIUmri  08:25+4:2708:26+4:281m--2688.756381mSCRNanded, Maharashtra
78BLSABolsa  08:35+4:2808:36+4:291m--2697.150361mSCRDharmabad, Maharashtra
79KEKKarkheli  08:45+4:2908:46+4:311m--2704.671358mSCRBiloli, Maharashtra
80SQESamrla  08:52+4:2908:53+4:291m--2711.749360mSCRDharmabad, Maharashtra
81DABDharmabad (2)  09:01+4:3409:02+4:351m--2718.137354mSCRDegaon, Maharashtra
82BSXBasar (2)  09:18+4:3209:20+4:342m12728.067358mSCRDist Adilabad, Andhra Pradesh
83FKBFakrabad (1)  09:26+4:2909:27+4:291m--2734.747348mSCRBasara, Andhra Pradesh
84NVTNavipet (2)  09:36+4:2709:37+4:271m--2741.770374mSCRNizamabad, Andhra Pradesh
85JKMJankampet Junction (1)  09:45+4:2709:46+4:271m12751.111391mSCRJankampet Junction nizamabad dist., Andhra Pradesh
86NZB•Nizamabad (3)•  10:20+4:17---2757.3-384mSCRNizamabad, Andhra Pradesh
Scroll to Top
Scroll to Bottom